KRME/RME METAR and TAF weather

Enter ICAO airport designator
Station Type Date Time Source
KRME METAR 2020/09/24 10:53 UTC NOAA

KRME 241053Z 14003KT 10SM OVC010 12/10 A2996 RMK AO2 SLP144 T01170100


Station Type Date Time Source
KRME Decoded METAR 2020/09/24 10:53 UTC NOAA

GRIFFISS AIRFIELD, NY, United States (KRME) 43-14N 075-24W
Sep 24, 2020 - 06:53 AM EDT / 2020.09.24 1053 UTC
Wind: from the SE (140 degrees) at 3 MPH (3 KT):0
Visibility: 10 mile(s):0
Sky conditions: overcast
Temperature: 53.1 F (11.7 C)
Dew Point: 50.0 F (10.0 C)
Relative Humidity: 89%
Pressure (altimeter): 29.96 in. Hg (1014 hPa)
ob: KRME 241053Z 14003KT 10SM OVC010 12/10 A2996 RMK AO2 SLP144 T01170100
cycle: 11

Station Type Date Time Source
KRME TAF 2020/09/24 08:54 UTC NOAA

TAF
AMD KRME 240751Z 2408/2506 00000KT P6SM SCT017 SCT250
TEMPO 2408/2412 BKN017
FM241500 24004KT P6SM BKN200
FM250000 VRB02KT P6SM SCT250

Example: see airport list